Terminal Aerodrome Forecast
Issued by NWS

Home | Current Version | Previous Version | Text Only | Print | Product List | Glossary On
Versions: 1 2 3 4 5 6 7 8 9 10 11 12 13 14 15 16 17 18 19 20 21 22 23 24 25 26 27 28
000
FTUS45 KREV 191127
TAFTVL
TAF
KTVL 191127Z 1912/2012 16009KT 3SM -SN OVC020 WS020/24045KT
     FM191400 19011KT P6SM VCSH SCT030 BKN040 WS020/24040KT
     FM191700 20012G22KT P6SM SCT035 BKN060 WS020/25045KT
     FM192000 20016G26KT P6SM VCSH SCT025 OVC050
     FM200100 19011G18KT 5SM -RASN BKN020 OVC030
     FM200500 19012G20KT 5SM -RA SCT015 OVC025=

USA.gov is the U.S. government's official web portal to all federal, state and local government web resources and services.